CHIUDI BANNER

Seguici su twitter Seguici su facebook
LIVE Streaming HD
Get Adobe Flash player
Dati meteo stazione (refresh automatico ogni minuto)
Senigallia(AN) VENTO: VELOCITÀ   PIOGGIA: QTA GIORNO TEMPERATURA: ATTUALE
SPOT: Darsena Di Senigallia RAFFICA MASSIMA: QTA MENSILE: MASSIMA:
VELOCITÀ MEDIA: QTA ANNUALE: MINIMA:
DIREZIONE: UMIDITÀ: WIND CHILL:
TIPO: DEW POINT:
BEAUFORT: PRESSIONE:
I nostri partner
Senigallia(AN) nelle ultime ore
Applica filtri in visualizzazione Intervallo delle letture nelle ultime

Ora Direzione Vento Velocita' Vento Media Vento Raffica Max. Temperatura Wind Chill Pioggia Pressione
03:23:0421 °(NNE)6.1 Kts6.1 Kts20 Kts0 °C0 °C0 mm1017 Hpa
03:18:2123 °(NNE)3.5 Kts7 Kts20 Kts0 °C0 °C0 mm1017 Hpa
03:13:1234 °(NE)7.8 Kts7 Kts20 Kts0 °C0 °C0 mm1017.2 Hpa
03:08:04355 °(N)5.2 Kts7 Kts20 Kts0 °C0 °C0 mm1017.2 Hpa
03:02:585 °(N)7 Kts7 Kts20 Kts0 °C0 °C0 mm1017.2 Hpa
02:58:09360 °(N)7 Kts6.1 Kts20 Kts0 °C0 °C0 mm1017.2 Hpa
02:53:0054 °(NE)5.2 Kts6.1 Kts20 Kts0 °C0 °C0 mm1017.3 Hpa
02:48:2219 °(NNE)5.2 Kts7 Kts20 Kts0 °C0 °C0 mm1017.2 Hpa
02:43:1728 °(NNE)8.7 Kts7 Kts20 Kts0 °C0 °C0 mm1017.3 Hpa
02:37:4530 °(NNE)7.8 Kts7.8 Kts20 Kts0 °C0 °C0 mm1017.2 Hpa
02:33:185 °(N)5.2 Kts7 Kts20 Kts0 °C0 °C0 mm1017.4 Hpa
02:28:0738 °(NE)8.7 Kts7 Kts20 Kts0 °C0 °C0 mm1017.4 Hpa
02:22:5840 °(NE)3.5 Kts6.1 Kts20 Kts0 °C0 °C0 mm1017.2 Hpa
02:18:2326 °(NNE)11.3 Kts6.1 Kts20 Kts0 °C0 °C0 mm1017.3 Hpa
02:13:1346 °(NE)5.2 Kts7 Kts20 Kts0 °C0 °C0 mm1017.2 Hpa
02:08:0226 °(NNE)6.1 Kts7 Kts20 Kts0 °C0 °C0 mm1017.2 Hpa
02:02:5034 °(NE)8.7 Kts7 Kts20 Kts0 °C0 °C0 mm1017.2 Hpa
00:49:5933 °(NNE)11.3 Kts12.2 Kts18.2 Kts0 °C0 °C0 mm1017 Hpa
00:49:5933 °(NNE)11.3 Kts12.2 Kts18.2 Kts0 °C0 °C0 mm1017 Hpa
00:49:5933 °(NNE)11.3 Kts12.2 Kts18.2 Kts0 °C0 °C0 mm1017 Hpa
00:49:5933 °(NNE)11.3 Kts12.2 Kts18.2 Kts0 °C0 °C0 mm1017 Hpa
00:49:5933 °(NNE)11.3 Kts12.2 Kts18.2 Kts0 °C0 °C0 mm1017 Hpa
00:49:5933 °(NNE)11.3 Kts12.2 Kts18.2 Kts0 °C0 °C0 mm1017 Hpa
00:49:5933 °(NNE)11.3 Kts12.2 Kts18.2 Kts0 °C0 °C0 mm1017 Hpa